createdAt,value
2018-04-06T19:45:54.379Z,100229.92
2018-04-06T19:48:22.015Z,100228.25
2018-04-06T19:50:56.800Z,100226.73
2018-04-06T19:53:24.064Z,100221.92
2018-04-06T19:55:52.399Z,100223.83
2018-04-06T19:58:19.699Z,100220.61
2018-04-06T20:00:48.041Z,100221.09
2018-04-06T20:03:15.578Z,100227.83
2018-04-06T20:05:42.679Z,100228.58
2018-04-06T20:08:09.999Z,100231.12
2018-04-06T20:10:40.506Z,100227.28
2018-04-06T20:13:07.950Z,100227.30
2018-04-06T20:15:35.282Z,100231.16
2018-04-06T20:18:02.631Z,100239.25
2018-04-06T20:20:30.854Z,100243.63
2018-04-06T20:22:58.810Z,100241.05
2018-04-06T20:25:26.174Z,100234.94
2018-04-06T20:27:53.495Z,100234.59
2018-04-06T20:30:31.352Z,100243.28
2018-04-06T20:32:58.554Z,100254.54
2018-04-06T20:35:25.868Z,100257.46
2018-04-06T20:37:53.180Z,100261.45
2018-04-06T20:40:21.381Z,100262.95
2018-04-06T20:42:48.682Z,100259.89
2018-04-06T20:45:17.573Z,100262.42
2018-04-06T20:47:44.744Z,100262.81
2018-04-06T20:50:16.070Z,100260.31
2018-04-06T20:52:44.066Z,100258.53
2018-04-06T20:55:12.026Z,100256.77
2018-04-06T20:57:39.370Z,100245.51
2018-04-06T21:00:10.299Z,100241.97
2018-04-06T21:02:38.270Z,100245.32
2018-04-06T21:05:05.996Z,100240.96
2018-04-06T21:07:33.151Z,100231.64
2018-04-06T21:10:00.279Z,100240.28
2018-04-06T21:12:27.462Z,100243.59
2018-04-06T21:14:54.702Z,100248.14
2018-04-06T21:17:21.910Z,100248.05
2018-04-06T21:19:59.211Z,100245.97
2018-04-06T21:22:26.561Z,100253.83
2018-04-06T21:25:01.156Z,100258.77
2018-04-06T21:27:28.921Z,100264.94
2018-04-06T21:30:00.699Z,100267.18
2018-04-06T21:32:27.935Z,100269.12
2018-04-06T21:34:55.262Z,100268.94
2018-04-06T21:37:22.497Z,100273.34
2018-04-06T21:39:53.329Z,100269.46
2018-04-06T21:42:21.026Z,100274.95
2018-04-06T21:44:48.364Z,100279.17
2018-04-06T21:47:16.249Z,100277.03
2018-04-06T21:49:54.302Z,100272.67
2018-04-06T21:52:21.590Z,100270.14
2018-04-06T21:54:48.842Z,100274.99
2018-04-06T21:57:16.138Z,100273.58
2018-04-06T21:59:47.507Z,100274.41
2018-04-06T22:02:14.722Z,100273.63
2018-04-06T22:04:42.097Z,100276.84
2018-04-06T22:07:09.346Z,100284.13
2018-04-06T22:09:37.506Z,100288.02
2018-04-06T22:12:04.718Z,100285.78
2018-04-06T22:14:31.867Z,100289.95
2018-04-06T22:16:59.095Z,100281.30
2018-04-06T22:19:26.428Z,100289.31
2018-04-06T22:21:54.866Z,100286.41
2018-04-06T22:24:22.158Z,100292.43
2018-04-06T22:26:49.382Z,100278.48
2018-04-06T22:29:16.521Z,100290.82
2018-04-06T22:31:51.315Z,100296.31
2018-04-06T22:34:18.550Z,100301.60
2018-04-06T22:36:45.755Z,100299.61
2018-04-06T22:39:12.932Z,100300.54
2018-04-06T22:41:41.358Z,100299.86
2018-04-06T22:44:08.537Z,100315.84
2018-04-06T22:46:35.858Z,100316.61
2018-04-06T22:49:03.039Z,100319.72
2018-04-06T22:51:31.486Z,100320.69
2018-04-06T22:53:58.838Z,100320.24
2018-04-06T22:56:25.960Z,100325.98
2018-04-06T22:58:53.842Z,100330.06
2018-04-06T23:01:24.101Z,100315.48
2018-04-06T23:03:51.341Z,100320.45
2018-04-06T23:06:19.333Z,100321.12
2018-04-06T23:08:47.030Z,100316.76
2018-04-06T23:11:14.702Z,100314.13
2018-04-06T23:13:41.985Z,100313.06
2018-04-06T23:16:09.275Z,100309.05
2018-04-06T23:18:36.947Z,100307.05
2018-04-06T23:21:08.138Z,100303.06
2018-04-06T23:23:35.470Z,100306.94
2018-04-06T23:26:02.642Z,100290.29
2018-04-06T23:28:30.145Z,100293.74
2018-04-06T23:31:01.021Z,100295.78
2018-04-06T23:33:28.338Z,100294.37
2018-04-06T23:35:55.587Z,100288.53
2018-04-06T23:38:23.196Z,100289.02
2018-04-06T23:41:02.186Z,100285.28
2018-04-06T23:43:29.390Z,100290.86
2018-04-06T23:45:56.632Z,100293.42
2018-04-06T23:48:23.789Z,100289.16
2018-04-06T23:50:52.262Z,100289.28
2018-04-06T23:53:20.205Z,100290.77
2018-04-06T23:55:47.571Z,100294.43
2018-04-06T23:58:14.674Z,100302.82
